This is the latest recevied weather packets stored in our database for station/object SP9MUF-14. If no packets are shown the sender has not sent any weather packets the latest 10 day(s).
| Time | Temp. | Humidity | Pressure | Rain* | Wind** | Luminosity | Snow |
|---|---|---|---|---|---|---|---|
| 1787644516 | 15° C | 75% | 1019.4 hPa | 0 mm | - | 101 W/m² | - |
| 1787644213 | 13.89° C | 76% | 1019.5 hPa | 0 mm | - | 100 W/m² | - |
| 1787643911 | 13.89° C | 76% | 1019.5 hPa | 0 mm | - | 103 W/m² | - |
| 1787643609 | 13.89° C | 76% | 1019.6 hPa | 0 mm | - | 76 W/m² | - |
| 1787643307 | 13.89° C | 76% | 1019.6 hPa | 0 mm | - | 69 W/m² | - |
| 1787643004 | 13.89° C | 76% | 1019.6 hPa | 0 mm | - | 65 W/m² | - |
| 1787642702 | 13.89° C | 76% | 1019.5 hPa | 0 mm | - | 58 W/m² | - |
| 1787642400 | 13.89° C | 77% | 1019.5 hPa | 0 mm | - | 61 W/m² | - |
| 1787642097 | 13.89° C | 76% | 1019.5 hPa | 0 mm | - | 59 W/m² | - |
| 1787641795 | 13.89° C | 76% | 1019.4 hPa | 0 mm | - | 93 W/m² | - |
| 1787641493 | 13.89° C | 77% | 1019.5 hPa | 0 mm | - | 97 W/m² | - |
| 1787641190 | 13.89° C | 77% | 1019.4 hPa | 0 mm | - | 100 W/m² | - |
| 1787640888 | 13.89° C | 78% | 1019.5 hPa | 0 mm | - | 94 W/m² | - |
| 1787640284 | 12.78° C | 78% | 1019.6 hPa | 0 mm | - | 53 W/m² | - |
| 1787639981 | 12.78° C | 79% | 1019.5 hPa | 0 mm | - | 54 W/m² | - |
| 1787639679 | 12.78° C | 78% | 1019.6 hPa | 0 mm | - | 58 W/m² | - |
| 1787639377 | 12.78° C | 78% | 1019.4 hPa | 0 mm | - | 68 W/m² | - |
| 1787639075 | 12.78° C | 79% | 1019.2 hPa | 0 mm | - | 77 W/m² | - |
| 1787638773 | 12.78° C | 80% | 1019.3 hPa | 0 mm | - | 91 W/m² | - |
| 1787638471 | 12.78° C | 80% | 1019.5 hPa | 0 mm | - | 89 W/m² | - |
| 1787638168 | 12.78° C | 81% | 1019.5 hPa | 0 mm | - | 90 W/m² | - |
| 1787637865 | 12.78° C | 81% | 1019.7 hPa | 0 mm | - | 56 W/m² | - |
| 1787637563 | 11.67° C | 82% | 1019.7 hPa | 0 mm | - | 67 W/m² | - |
| 1787637261 | 11.67° C | 82% | 1019.7 hPa | 0 mm | - | 63 W/m² | - |
| 1787636959 | 11.67° C | 82% | 1019.8 hPa | 0 mm | - | 50 W/m² | - |
* Rain latest hour (hover to see other rain measurements)
** Current wind speed in m/s (hover to see current wind gust speed)